Aérodrome :
LOGIN :

S'inscrire | Disclaimer

   EN    FR    IT 

 










Légende :    VFR   VFR Marginal   IFR   IFR Intensif   IFR Très Intensif
Visi : 
Plafond : 
>= 8 km
>= 3000ft
5 à 8 km
1000 à 3000 ft
1500m à 5 km
500 à 1000 ft
800 à 1500m
200 à 500 ft
< 800m
< 200 ft
Symboles :   Orages  Brouillard  Fortes neiges  Fortes précipitations  Vent > 20 kt
SIGMETs :   Divers  Orages  Givrage  Turbulence  Onde Orograph.  Cendres Volcan.






- Altitude de l'aérodrome : 302 ft
- Code IATA : CGN


EDDK - Cologne Bonn

DERNIER METAR :
  • 161550Z 27005KT 9999 -SHRA SCT020TCU 17/15 Q1017 NOSIG

METARs EXPIRÉS :
  • 161520Z 28007KT 240V310 9999 SCT018TCU 18/14 Q1017 NOSIG
  • 161450Z 27009KT 9999 -RA SCT016 17/15 Q1017 NOSIG
  • 161420Z 28008KT 240V310 9999 -RA FEW004 18/16 Q1017 NOSIG
  • 161350Z 28005KT 9999 -RA FEW004 17/14 Q1017 NOSIG
  • 161320Z 26003KT 180V320 9999 -DZ FEW004 SCT012 BKN033 17/15 Q1017 TEMPO BKN012

TAF TAF EDDK
Valide du 16 à 12h jusqu'au 17 à 18h UTC


161100Z 1612/1718 VRB03KT 9000 BKN025
TEMPO 1612/1619 3500 -RADZ BKN012
PROB30
TEMPO 1612/1618 DZRA BKN007
BECMG 1612/1615 30005KT
BECMG 1623/1702 OVC012
PROB40
TEMPO 1702/1708 2500 BR BKN007
BECMG 1708/1710 BKN030



MET'MAP, la Météo Aéronautique d'un coup d'oeil ! - Copyright ORBIFLY Décembre 2007 - Disclaimer

ORBIFLY MET'MAP TEAM :

Programmation & Développement : Alexandra Zaïnal
Sur une idée originale de : Baudouin d'Aumeries
Assistance à la programmation : Marc-Olivier Méhu
Soutien technique & logistique : Manuel Goepfert

Contact : metmap@orbifly.com




SOURCES & CREDITS :

   NOAA